createdAt,value
2022-07-29T00:01:42.673Z,63.10
2022-07-29T00:04:10.395Z,63.10
2022-07-29T00:06:39.958Z,63.10
2022-07-29T00:09:07.826Z,63.10
2022-07-29T00:11:35.478Z,63.20
2022-07-29T00:14:03.281Z,63.20
2022-07-29T00:16:31.050Z,63.30
2022-07-29T00:19:02.083Z,63.30
2022-07-29T00:21:30.179Z,63.30
2022-07-29T00:23:57.816Z,63.30
2022-07-29T00:26:26.111Z,63.50
2022-07-29T00:29:06.320Z,63.40
2022-07-29T00:31:41.415Z,63.40
2022-07-29T00:34:29.680Z,63.50
2022-07-29T00:36:56.831Z,63.40
2022-07-29T00:39:24.544Z,63.40
2022-07-29T00:41:52.352Z,63.40
2022-07-29T00:44:20.747Z,63.50
2022-07-29T00:46:48.614Z,63.40
2022-07-29T00:49:16.415Z,63.50
2022-07-29T00:51:44.472Z,63.60
2022-07-29T00:54:12.245Z,63.60
2022-07-29T00:56:39.996Z,63.60
2022-07-29T00:59:07.620Z,63.50
2022-07-29T01:01:35.336Z,63.60
2022-07-29T01:04:03.192Z,63.60
2022-07-29T01:06:31.873Z,63.70
2022-07-29T01:08:59.905Z,63.80
2022-07-29T01:11:27.688Z,63.70
2022-07-29T01:13:55.489Z,63.80
2022-07-29T01:16:27.190Z,63.80
2022-07-29T01:18:58.789Z,63.80
2022-07-29T01:21:38.235Z,63.80
2022-07-29T01:24:08.947Z,63.80
2022-07-29T01:26:44.757Z,63.80
2022-07-29T01:29:29.858Z,63.90
2022-07-29T01:32:28.157Z,63.90
2022-07-29T01:35:08.230Z,64.00
2022-07-29T01:37:47.426Z,63.90
2022-07-29T01:40:20.298Z,64.00
2022-07-29T01:42:52.056Z,64.00
2022-07-29T01:45:34.254Z,64.00
2022-07-29T01:48:18.655Z,64.50
2022-07-29T01:50:48.854Z,64.90
2022-07-29T01:53:18.446Z,64.80
2022-07-29T01:55:46.540Z,64.70
2022-07-29T01:58:15.285Z,64.70
2022-07-29T02:00:44.011Z,65.10
2022-07-29T02:03:13.043Z,64.70
2022-07-29T02:05:42.935Z,64.50
2022-07-29T02:08:11.910Z,64.60
2022-07-29T02:10:40.279Z,64.50
2022-07-29T02:13:09.308Z,64.60
2022-07-29T02:15:37.469Z,64.80
2022-07-29T02:18:24.952Z,64.70
2022-07-29T02:20:54.655Z,64.90
2022-07-29T02:23:25.859Z,64.90
2022-07-29T02:25:54.992Z,64.80
2022-07-29T02:28:26.805Z,64.90
2022-07-29T02:30:55.340Z,65.00
2022-07-29T02:33:23.685Z,65.20
2022-07-29T02:35:52.100Z,65.30
2022-07-29T02:38:37.861Z,65.50
2022-07-29T02:41:07.741Z,65.50
2022-07-29T02:43:36.469Z,65.40
2022-07-29T02:46:06.583Z,65.60
2022-07-29T02:48:58.754Z,65.80
2022-07-29T02:51:43.672Z,66.10
2022-07-29T02:54:13.891Z,66.10
2022-07-29T02:56:42.381Z,66.00
2022-07-29T02:59:11.989Z,66.20
2022-07-29T03:01:41.908Z,66.30
2022-07-29T03:04:11.017Z,66.20
2022-07-29T03:06:39.731Z,66.40
2022-07-29T03:09:13.514Z,66.30
2022-07-29T03:11:50.064Z,66.40
2022-07-29T03:14:20.106Z,66.20
2022-07-29T03:16:48.584Z,66.30
2022-07-29T03:19:16.471Z,66.30
2022-07-29T03:21:44.118Z,66.20
2022-07-29T03:24:12.113Z,66.20
2022-07-29T03:26:39.750Z,66.40
2022-07-29T03:29:07.697Z,66.40
2022-07-29T03:31:35.449Z,66.40
2022-07-29T03:34:03.107Z,66.60
2022-07-29T03:36:30.752Z,66.70
2022-07-29T03:38:58.422Z,67.50
2022-07-29T03:41:26.880Z,67.10
2022-07-29T03:43:55.670Z,68.80
2022-07-29T03:46:24.465Z,68.90
2022-07-29T03:48:54.551Z,68.60
2022-07-29T03:51:33.954Z,68.30
2022-07-29T03:54:07.823Z,68.20
2022-07-29T03:56:39.922Z,68.40
2022-07-29T03:59:07.811Z,69.00
2022-07-29T04:01:36.277Z,68.70
2022-07-29T04:04:04.744Z,68.70
2022-07-29T04:06:40.043Z,68.90
2022-07-29T04:09:09.751Z,69.30
2022-07-29T04:12:01.952Z,69.20
2022-07-29T04:14:26.159Z,69.50
2022-07-29T04:16:53.803Z,69.80
2022-07-29T04:19:21.464Z,69.70
2022-07-29T04:21:49.064Z,70.10
2022-07-29T04:24:17.237Z,70.70
2022-07-29T04:26:47.088Z,70.30
2022-07-29T04:29:15.517Z,71.00
2022-07-29T04:31:43.927Z,70.70
2022-07-29T04:34:12.342Z,70.70
2022-07-29T04:36:40.196Z,71.20
2022-07-29T04:39:07.849Z,71.50
2022-07-29T04:41:35.529Z,71.40
2022-07-29T04:44:12.366Z,71.40
2022-07-29T04:46:40.098Z,71.40
2022-07-29T04:49:07.781Z,71.70
2022-07-29T04:51:35.594Z,71.70
2022-07-29T04:54:03.353Z,71.90
2022-07-29T04:56:30.985Z,71.90
2022-07-29T04:58:58.633Z,72.40
2022-07-29T05:01:26.335Z,72.30
2022-07-29T05:03:59.846Z,72.70
2022-07-29T05:06:28.026Z,72.70
2022-07-29T05:08:55.663Z,72.80
2022-07-29T05:11:26.117Z,73.10
2022-07-29T05:13:57.617Z,73.30
2022-07-29T05:16:25.353Z,73.30
2022-07-29T05:18:52.998Z,73.40
2022-07-29T05:21:20.606Z,73.30
2022-07-29T05:23:48.198Z,73.70
2022-07-29T05:26:15.775Z,73.90
2022-07-29T05:28:43.382Z,73.80
2022-07-29T05:31:11.389Z,74.50
2022-07-29T05:33:39.057Z,74.40
2022-07-29T05:36:07.772Z,74.60
2022-07-29T05:38:36.421Z,75.40
2022-07-29T05:41:04.108Z,75.20
2022-07-29T05:43:31.979Z,75.60
2022-07-29T05:45:59.621Z,76.00
2022-07-29T05:48:27.329Z,76.50
2022-07-29T05:50:55.329Z,76.00
2022-07-29T05:53:23.714Z,76.20
2022-07-29T05:55:53.202Z,76.20
2022-07-29T05:58:21.727Z,76.10
2022-07-29T06:00:49.374Z,76.00
2022-07-29T06:03:17.284Z,76.60
2022-07-29T06:05:45.337Z,76.00
2022-07-29T06:08:13.289Z,76.00
2022-07-29T06:10:40.935Z,76.00
2022-07-29T06:13:08.885Z,76.60
2022-07-29T06:15:36.642Z,77.20
2022-07-29T06:18:04.762Z,82.30
2022-07-29T06:20:33.171Z,88.40
2022-07-29T06:23:01.466Z,84.30
2022-07-29T06:25:31.137Z,83.30
2022-07-29T06:27:59.569Z,82.60
2022-07-29T06:30:27.499Z,82.20
2022-07-29T06:32:55.853Z,81.80
2022-07-29T06:35:42.387Z,81.20
2022-07-29T06:38:14.933Z,81.00
2022-07-29T06:41:04.807Z,80.90
2022-07-29T06:43:50.814Z,81.10
2022-07-29T06:46:23.213Z,80.90
2022-07-29T06:48:51.548Z,85.80
2022-07-29T06:51:22.430Z,88.00
2022-07-29T06:54:00.633Z,88.80
2022-07-29T06:56:38.872Z,89.60
2022-07-29T06:59:07.983Z,90.20
2022-07-29T07:01:36.122Z,90.40
2022-07-29T07:04:04.089Z,90.60
2022-07-29T07:06:31.773Z,90.20
2022-07-29T07:08:59.353Z,88.60
2022-07-29T07:11:27.007Z,88.60
2022-07-29T07:13:59.279Z,89.30
2022-07-29T07:16:30.145Z,88.90
2022-07-29T07:18:57.817Z,89.40
2022-07-29T07:21:25.620Z,88.70
2022-07-29T07:23:53.251Z,90.50
2022-07-29T07:26:20.891Z,90.70
2022-07-29T07:28:48.514Z,91.50
2022-07-29T07:31:16.157Z,91.80
2022-07-29T07:33:43.841Z,92.20
2022-07-29T07:36:11.487Z,92.50
2022-07-29T07:38:39.127Z,92.40
2022-07-29T07:41:06.779Z,92.50
2022-07-29T07:43:34.857Z,92.00
2022-07-29T07:46:02.540Z,92.30
2022-07-29T07:48:30.315Z,92.40
2022-07-29T07:50:58.046Z,92.20
2022-07-29T07:53:26.023Z,92.60
2022-07-29T07:56:09.909Z,93.00
2022-07-29T07:58:38.428Z,93.30
2022-07-29T08:01:06.469Z,93.20
2022-07-29T08:03:34.910Z,93.50
2022-07-29T08:06:02.728Z,93.40
2022-07-29T08:08:30.501Z,93.20
2022-07-29T08:10:58.205Z,93.50
2022-07-29T08:13:28.054Z,93.50
2022-07-29T08:16:00.753Z,93.40
2022-07-29T08:18:29.258Z,93.70
2022-07-29T08:20:57.808Z,93.80
2022-07-29T08:23:30.247Z,93.90
2022-07-29T08:26:00.981Z,93.90
2022-07-29T08:28:29.854Z,94.20
2022-07-29T08:30:57.823Z,94.50
2022-07-29T08:33:25.462Z,94.30
2022-07-29T08:35:53.746Z,94.50
2022-07-29T08:38:21.558Z,94.30
2022-07-29T08:40:49.194Z,94.40
2022-07-29T08:43:16.832Z,94.40
2022-07-29T08:45:47.755Z,94.20
2022-07-29T08:48:17.112Z,94.10
2022-07-29T08:50:46.440Z,94.10
2022-07-29T08:53:15.678Z,94.20
2022-07-29T08:55:44.711Z,93.90
2022-07-29T08:58:13.019Z,93.70
2022-07-29T09:00:45.211Z,93.90
2022-07-29T09:03:16.589Z,93.60
2022-07-29T09:05:47.968Z,93.40
2022-07-29T09:08:16.636Z,93.30
2022-07-29T09:10:45.092Z,93.20
2022-07-29T09:13:12.724Z,93.10
2022-07-29T09:15:40.462Z,93.00
2022-07-29T09:18:08.073Z,92.90
2022-07-29T09:21:11.741Z,92.70
2022-07-29T09:23:40.585Z,92.80
2022-07-29T09:26:08.188Z,92.90
2022-07-29T09:28:35.806Z,92.90
2022-07-29T09:31:03.440Z,92.80
2022-07-29T09:33:35.614Z,92.70
2022-07-29T09:36:07.618Z,92.70
2022-07-29T09:38:36.130Z,92.70
2022-07-29T09:41:06.344Z,92.60
2022-07-29T09:43:34.980Z,92.60
2022-07-29T09:46:13.358Z,92.50
2022-07-29T09:48:41.041Z,92.20
2022-07-29T09:51:21.281Z,92.00
2022-07-29T09:53:51.219Z,91.80
2022-07-29T09:56:20.759Z,93.60
2022-07-29T09:58:48.565Z,93.90
2022-07-29T10:01:16.544Z,94.50
2022-07-29T10:03:53.982Z,94.20
2022-07-29T10:06:21.627Z,93.40
2022-07-29T10:08:50.488Z,93.90
2022-07-29T10:11:19.077Z,93.30
2022-07-29T10:13:47.899Z,93.90
2022-07-29T10:16:16.396Z,93.80
2022-07-29T10:18:45.084Z,93.00
2022-07-29T10:21:35.275Z,92.00
2022-07-29T10:24:00.949Z,93.00
2022-07-29T10:26:30.051Z,91.10
2022-07-29T10:28:57.669Z,92.20
2022-07-29T10:31:31.603Z,93.00
2022-07-29T10:33:59.588Z,91.30
2022-07-29T10:36:44.268Z,92.20
2022-07-29T10:39:41.592Z,93.10
2022-07-29T10:42:33.468Z,92.30
2022-07-29T10:45:04.373Z,92.30
2022-07-29T10:47:32.245Z,92.90
2022-07-29T10:50:04.637Z,91.40
2022-07-29T10:52:54.645Z,92.20
2022-07-29T10:55:43.304Z,93.00
2022-07-29T10:58:14.366Z,93.30
2022-07-29T11:00:42.187Z,93.40
2022-07-29T11:03:33.453Z,93.50
2022-07-29T11:06:01.121Z,92.90
2022-07-29T11:08:31.637Z,94.10
2022-07-29T11:11:19.068Z,93.60
2022-07-29T11:13:48.876Z,94.50
2022-07-29T11:16:17.313Z,94.20
2022-07-29T11:19:06.669Z,95.40
2022-07-29T11:21:54.229Z,95.50
2022-07-29T11:24:30.247Z,94.80
2022-07-29T11:27:11.446Z,93.80
2022-07-29T11:29:43.121Z,94.70
2022-07-29T11:32:18.152Z,94.10
2022-07-29T11:34:51.440Z,95.00
2022-07-29T11:37:28.081Z,95.40
2022-07-29T11:40:01.561Z,95.90
2022-07-29T11:42:32.877Z,96.00
2022-07-29T11:45:40.400Z,95.80
2022-07-29T11:47:56.021Z,95.90
2022-07-29T11:50:37.207Z,96.40
2022-07-29T11:53:12.019Z,96.10
2022-07-29T11:55:50.841Z,96.30
2022-07-29T11:58:26.499Z,96.40
2022-07-29T12:00:56.187Z,96.70
2022-07-29T12:03:33.300Z,96.80
2022-07-29T12:06:07.545Z,96.80
2022-07-29T12:08:42.168Z,97.00
2022-07-29T12:11:17.285Z,96.70
2022-07-29T12:13:45.238Z,96.70
2022-07-29T12:16:14.578Z,96.80
2022-07-29T12:18:42.534Z,97.20
2022-07-29T12:21:12.400Z,97.20
2022-07-29T12:23:40.674Z,97.10
2022-07-29T12:26:10.738Z,96.90
2022-07-29T12:28:50.430Z,96.80
2022-07-29T12:31:43.329Z,96.70
2022-07-29T12:34:06.198Z,96.60
2022-07-29T12:36:34.050Z,96.30
2022-07-29T12:39:02.098Z,96.80
2022-07-29T12:41:30.404Z,96.70
2022-07-29T12:43:58.131Z,97.00
2022-07-29T12:46:25.880Z,96.70
2022-07-29T12:48:55.502Z,96.40
2022-07-29T12:51:32.795Z,96.20
2022-07-29T12:54:14.611Z,95.90
2022-07-29T12:56:44.393Z,95.60
2022-07-29T12:59:13.952Z,95.50
2022-07-29T13:01:41.567Z,94.90
2022-07-29T13:04:09.256Z,94.30
2022-07-29T13:06:41.084Z,94.40
2022-07-29T13:09:23.656Z,93.70
2022-07-29T13:11:52.387Z,93.70
2022-07-29T13:14:32.401Z,93.80
2022-07-29T13:17:10.797Z,93.00
2022-07-29T13:19:46.031Z,91.90
2022-07-29T13:22:15.509Z,92.00
2022-07-29T13:24:52.675Z,92.00
2022-07-29T13:27:21.149Z,92.10
2022-07-29T13:29:50.201Z,90.50
2022-07-29T13:32:17.835Z,90.20
2022-07-29T13:34:45.421Z,88.40
2022-07-29T13:37:13.217Z,88.90
2022-07-29T13:39:41.318Z,88.00
2022-07-29T13:42:11.069Z,90.00
2022-07-29T13:44:38.955Z,90.10
2022-07-29T13:47:07.045Z,89.80
2022-07-29T13:49:34.637Z,89.70
2022-07-29T13:52:02.469Z,89.50
2022-07-29T13:54:30.093Z,89.00
2022-07-29T13:56:57.689Z,89.20
2022-07-29T13:59:25.314Z,85.70
2022-07-29T14:01:52.955Z,86.20
2022-07-29T14:04:20.636Z,86.90
2022-07-29T14:06:48.562Z,86.30
2022-07-29T14:09:16.571Z,86.70
2022-07-29T14:11:44.315Z,87.20
2022-07-29T14:14:12.739Z,86.80
2022-07-29T14:16:43.784Z,87.50
2022-07-29T14:19:16.674Z,87.50
2022-07-29T14:21:44.355Z,86.80
2022-07-29T14:24:18.028Z,86.00
2022-07-29T14:26:50.833Z,85.80
2022-07-29T14:29:18.882Z,85.90
2022-07-29T14:31:46.656Z,86.30
2022-07-29T14:34:16.254Z,86.00
2022-07-29T14:36:43.935Z,86.30
2022-07-29T14:39:12.240Z,85.90
2022-07-29T14:41:40.191Z,86.90
2022-07-29T14:44:07.819Z,85.30
2022-07-29T14:46:35.443Z,85.60
2022-07-29T14:49:03.200Z,83.80
2022-07-29T14:51:32.209Z,83.80
2022-07-29T14:54:00.335Z,84.40
2022-07-29T14:56:37.115Z,83.60
2022-07-29T14:59:05.675Z,84.20
2022-07-29T15:01:33.590Z,83.70
2022-07-29T15:04:01.620Z,83.70
2022-07-29T15:06:29.677Z,84.90
2022-07-29T15:08:57.329Z,85.10
2022-07-29T15:11:25.301Z,85.70
2022-07-29T15:13:53.175Z,86.00
2022-07-29T15:16:21.840Z,86.10
2022-07-29T15:18:49.471Z,83.70
2022-07-29T15:21:17.112Z,83.90
2022-07-29T15:23:44.881Z,83.00
2022-07-29T15:26:12.502Z,84.30
2022-07-29T15:28:41.021Z,84.90
2022-07-29T15:31:09.959Z,84.70
2022-07-29T15:33:37.593Z,83.60
2022-07-29T15:36:06.062Z,84.60
2022-07-29T15:38:33.850Z,83.10
2022-07-29T15:41:01.489Z,83.10
2022-07-29T15:43:29.466Z,82.30
2022-07-29T15:46:11.076Z,82.20
2022-07-29T15:48:39.857Z,82.20
2022-07-29T15:51:07.622Z,82.70
2022-07-29T15:53:37.609Z,82.70
2022-07-29T15:56:05.790Z,81.90
2022-07-29T15:58:33.610Z,82.90
2022-07-29T16:01:01.484Z,82.10
2022-07-29T16:03:29.172Z,81.60
2022-07-29T16:05:57.143Z,81.60
2022-07-29T16:08:24.762Z,83.40
2022-07-29T16:10:52.860Z,83.50
2022-07-29T16:13:20.909Z,81.70
2022-07-29T16:16:02.343Z,81.40
2022-07-29T16:18:30.923Z,82.40
2022-07-29T16:20:59.055Z,82.20
2022-07-29T16:23:26.685Z,84.30
2022-07-29T16:26:00.062Z,84.50
2022-07-29T16:28:28.634Z,85.40
2022-07-29T16:30:57.416Z,84.70
2022-07-29T16:33:25.195Z,84.90
2022-07-29T16:35:53.315Z,84.30
2022-07-29T16:38:21.167Z,85.40
2022-07-29T16:40:49.683Z,86.80
2022-07-29T16:43:17.611Z,84.90
2022-07-29T16:45:47.193Z,84.90
2022-07-29T16:48:17.962Z,85.20
2022-07-29T16:50:46.341Z,83.00
2022-07-29T16:53:14.045Z,83.60
2022-07-29T16:55:42.650Z,84.80
2022-07-29T16:58:10.734Z,85.90
2022-07-29T17:00:39.020Z,85.20
2022-07-29T17:03:06.690Z,85.60
2022-07-29T17:05:52.253Z,86.40
2022-07-29T17:08:22.057Z,87.30
2022-07-29T17:10:50.046Z,87.40
2022-07-29T17:13:17.709Z,87.30
2022-07-29T17:15:45.407Z,86.90
2022-07-29T17:18:13.153Z,87.10
2022-07-29T17:20:42.144Z,86.60
2022-07-29T17:23:09.842Z,85.80
2022-07-29T17:25:37.855Z,86.30
2022-07-29T17:28:05.518Z,86.60
2022-07-29T17:30:33.159Z,86.20
2022-07-29T17:33:00.759Z,86.20
2022-07-29T17:35:46.543Z,85.60
2022-07-29T17:38:14.149Z,84.80
2022-07-29T17:40:41.928Z,85.80
2022-07-29T17:43:10.160Z,86.20
2022-07-29T17:45:50.165Z,87.90
2022-07-29T17:48:19.650Z,87.70
2022-07-29T17:50:47.933Z,88.00
2022-07-29T17:53:16.687Z,87.50
2022-07-29T17:55:49.023Z,88.10
2022-07-29T17:58:17.981Z,87.70
2022-07-29T18:00:46.013Z,87.30
2022-07-29T18:03:13.776Z,88.00
2022-07-29T18:05:42.380Z,88.20
2022-07-29T18:08:10.045Z,88.60
2022-07-29T18:10:38.366Z,88.80
2022-07-29T18:13:05.993Z,89.60
2022-07-29T18:15:34.032Z,89.90
2022-07-29T18:18:01.785Z,90.10
2022-07-29T18:20:29.755Z,89.60
2022-07-29T18:22:57.576Z,90.20
2022-07-29T18:25:25.962Z,90.20
2022-07-29T18:27:56.189Z,90.30
2022-07-29T18:30:27.926Z,90.20
2022-07-29T18:33:19.710Z,90.30
2022-07-29T18:35:43.950Z,90.40
2022-07-29T18:38:11.782Z,90.30
2022-07-29T18:40:40.306Z,90.40
2022-07-29T18:43:07.967Z,90.10
2022-07-29T18:45:39.634Z,90.20
2022-07-29T18:48:08.335Z,90.40
2022-07-29T18:50:41.174Z,90.20
2022-07-29T18:53:09.565Z,90.30
2022-07-29T18:55:37.195Z,90.50
2022-07-29T18:58:04.842Z,90.30
2022-07-29T19:00:32.562Z,90.30
2022-07-29T19:03:00.370Z,90.20
2022-07-29T19:05:28.154Z,90.30
2022-07-29T19:07:56.068Z,90.90
2022-07-29T19:10:23.802Z,90.90
2022-07-29T19:12:51.619Z,91.00
2022-07-29T19:15:19.920Z,91.20
2022-07-29T19:17:48.477Z,91.30
2022-07-29T19:20:16.534Z,91.30
2022-07-29T19:22:44.171Z,91.50
2022-07-29T19:25:11.840Z,91.40
2022-07-29T19:27:39.572Z,91.90
2022-07-29T19:30:09.259Z,91.90
2022-07-29T19:32:37.383Z,92.10
2022-07-29T19:35:23.396Z,91.90
2022-07-29T19:37:51.515Z,91.70
2022-07-29T19:40:19.308Z,91.50
2022-07-29T19:42:48.328Z,91.40
2022-07-29T19:45:16.388Z,91.20
2022-07-29T19:47:44.365Z,91.10
2022-07-29T19:50:12.366Z,91.00
2022-07-29T19:52:40.355Z,91.00
2022-07-29T19:55:08.509Z,90.90
2022-07-29T19:57:41.059Z,91.00
2022-07-29T20:00:11.367Z,91.00
2022-07-29T20:02:39.933Z,91.00
2022-07-29T20:05:08.086Z,91.20
2022-07-29T20:07:35.966Z,91.20
2022-07-29T20:10:03.799Z,91.40
2022-07-29T20:12:31.608Z,91.30
2022-07-29T20:14:59.318Z,91.40
2022-07-29T20:17:28.303Z,91.40
2022-07-29T20:19:59.895Z,91.40
2022-07-29T20:22:27.569Z,91.50
2022-07-29T20:24:55.206Z,91.60
2022-07-29T20:27:22.795Z,91.60
2022-07-29T20:29:50.414Z,91.90
2022-07-29T20:32:18.081Z,92.20
2022-07-29T20:34:45.713Z,92.20
2022-07-29T20:37:14.590Z,92.40
2022-07-29T20:39:43.310Z,92.60
2022-07-29T20:42:11.167Z,92.70
2022-07-29T20:44:38.799Z,92.70
2022-07-29T20:47:06.803Z,92.70
2022-07-29T20:49:36.091Z,92.80
2022-07-29T20:52:04.564Z,92.90
2022-07-29T20:54:32.563Z,93.00
2022-07-29T20:57:00.584Z,93.50
2022-07-29T20:59:28.437Z,93.40
2022-07-29T21:01:56.104Z,93.50
2022-07-29T21:04:29.575Z,93.60
2022-07-29T21:06:59.147Z,93.60
2022-07-29T21:09:27.241Z,93.60
2022-07-29T21:11:55.042Z,93.70
2022-07-29T21:14:43.289Z,93.60
2022-07-29T21:17:11.085Z,93.70
2022-07-29T21:19:38.654Z,93.90
2022-07-29T21:22:06.315Z,93.90
2022-07-29T21:24:33.924Z,94.20
2022-07-29T21:27:21.233Z,94.20
2022-07-29T21:29:49.735Z,94.10
2022-07-29T21:32:29.996Z,94.20
2022-07-29T21:34:58.429Z,93.70
2022-07-29T21:37:26.095Z,93.60
2022-07-29T21:39:53.797Z,93.60
2022-07-29T21:42:21.417Z,93.60
2022-07-29T21:44:49.017Z,93.60
2022-07-29T21:47:16.615Z,93.60
2022-07-29T21:49:44.209Z,93.60
2022-07-29T21:52:12.834Z,93.60
2022-07-29T21:54:40.519Z,93.60
2022-07-29T21:57:08.610Z,93.70
2022-07-29T21:59:36.363Z,93.60
2022-07-29T22:02:04.007Z,93.60
2022-07-29T22:04:32.140Z,93.60
2022-07-29T22:07:00.100Z,93.60
2022-07-29T22:09:27.948Z,93.70
2022-07-29T22:11:55.784Z,93.60
2022-07-29T22:14:23.385Z,93.70
2022-07-29T22:16:50.993Z,93.70
2022-07-29T22:19:18.732Z,93.70
2022-07-29T22:21:47.097Z,93.80
2022-07-29T22:24:14.728Z,93.80
2022-07-29T22:26:42.340Z,93.80
2022-07-29T22:29:11.520Z,93.90
2022-07-29T22:31:39.143Z,93.90
2022-07-29T22:34:12.516Z,94.00
2022-07-29T22:36:41.076Z,94.00
2022-07-29T22:39:08.855Z,94.00
2022-07-29T22:41:36.812Z,94.10
2022-07-29T22:44:04.860Z,94.20
2022-07-29T22:46:33.774Z,94.30
2022-07-29T22:49:01.481Z,94.30
2022-07-29T22:51:29.188Z,94.30
2022-07-29T22:53:57.030Z,94.30
2022-07-29T22:56:25.061Z,94.30
2022-07-29T22:58:55.210Z,94.30
2022-07-29T23:01:38.029Z,94.30
2022-07-29T23:04:06.391Z,94.40
2022-07-29T23:06:34.502Z,94.50
2022-07-29T23:09:02.140Z,94.70
2022-07-29T23:11:29.767Z,94.60
2022-07-29T23:13:57.522Z,95.00
2022-07-29T23:16:26.683Z,94.80
2022-07-29T23:18:55.063Z,94.80
2022-07-29T23:21:22.996Z,94.90
2022-07-29T23:23:50.646Z,95.00
2022-07-29T23:26:18.281Z,95.00
2022-07-29T23:28:46.374Z,94.90
2022-07-29T23:31:14.073Z,95.00
2022-07-29T23:33:42.247Z,95.00
2022-07-29T23:36:09.876Z,95.10
2022-07-29T23:38:40.704Z,95.00
2022-07-29T23:41:09.554Z,95.20
2022-07-29T23:43:37.924Z,95.40
2022-07-29T23:46:06.431Z,95.30
2022-07-29T23:48:34.797Z,95.30
2022-07-29T23:51:02.464Z,95.30
2022-07-29T23:53:30.292Z,95.40
2022-07-29T23:55:58.288Z,95.40
2022-07-29T23:58:26.506Z,95.30
